Αναφορές METAR

 

LGKZ - Kozani (civ/Army, Greece
Distance from station: ΝΔ 41km
Ενημερώθηκε: 29/01/2020 23:20

 Ανεμος από varies
Ανεμος: varies 4 km/h
Θερμοκρασία: 8°C
Σημείο Δρόσου: 0°C
Υγρασία: 57%
Βαρόμετρο: 1012 hPa
2020/01/29 21:20 LGKZ 292120Z AUTO VRB02KT //// // ////// 08/M00 Q1012 RERA
LGTS - Thessaloniki/Mik, Greece
Distance from station: Α 64km
Ενημερώθηκε: 29/01/2020 23:20
Μερικώς νεφελώδης
Μερικώς νεφελώδης
 Ανεμος από varies
Ανεμος: varies 4 km/h
Θερμοκρασία: 9°C
Σημείο Δρόσου: 6°C
Υγρασία: 82%
Βαρόμετρο: 1010 hPa
Clouds: Μερικώς νεφελώδης
Visibility: 10 km
Cloud details: Μερικώς νεφελώδης 1067 m
2020/01/29 21:20 LGTS 292120Z VRB02KT 9999 SCT035 09/06 Q1010 NOSIG
 
LGIO - Ioannina, Greece
Distance from station: ΝΔ 149km
Ενημερώθηκε: 29/01/2020 23:20

 Ανεμος από varies
Ανεμος: varies 4 km/h
Θερμοκρασία: 7°C
Σημείο Δρόσου: 7°C
Υγρασία: 100%
Βαρόμετρο: 1014 hPa
2020/01/29 21:20 LGIO 292120Z AUTO VRB02KT //// // ////// 07/07 Q1014 RE//
LGBL - Nea Anchialos, Greece
Distance from station: ΝΝΑ 154km
Ενημερώθηκε: 29/01/2020 22:50
Μερικώς νεφελώδης
Μερικώς νεφελώδης
 Ανεμος από Δ
Ανεμος: Δ 20 km/h
Θερμοκρασία: 13°C
Σημείο Δρόσου: 5°C
Υγρασία: 59%
Βαρόμετρο: 1011 hPa
Clouds: Μερικώς νεφελώδης
Visibility: 10 km
Cloud details: Few Clouds 914 m
Μερικώς νεφελώδης 1829 m
2020/01/29 20:50 LGBL 292050Z 27011KT 9999 FEW030 SCT060 13/05 Q1011
 
LGSK - Skiathos Island, Greece
Distance from station: ΝΑ 185km
Ενημερώθηκε: 29/01/2020 15:50
NOT Current
Few Clouds
Few Clouds
 Ανεμος από Α
Ανεμος: Α 7 km/h
Θερμοκρασία: 17°C
Σημείο Δρόσου: 7°C
Υγρασία: 52%
Βαρόμετρο: 1009 hPa
Clouds: Few Clouds
Visibility: 10 km
Cloud details: Few Clouds 762 m
2020/01/29 13:50 LGSK 291350Z 10004KT 9999 FEW025 17/07 Q1009
LGKV - Kavala/Chrisoupo, Greece
Distance from station: ΑΒΑ 208km
Ενημερώθηκε: 29/01/2020 22:50
Ασθενής βροχή, Σχεδόν νεφελώδης
Ασθενής βροχή, Σχεδόν νεφελώδης
 Ανεμος από ΒΑ
Ανεμος: ΒΑ 4 km/h
Θερμοκρασία: 9°C
Σημείο Δρόσου: 7°C
Υγρασία: 87%
Βαρόμετρο: 1011 hPa
Περίληψη: Ασθενής βροχή
Clouds: Σχεδόν νεφελώδης
Visibility: 10 km
Cloud details: Μερικώς νεφελώδης 914 m
Σχεδόν νεφελώδης 2134 m
2020/01/29 20:50 LGKV 292050Z 04002KT 9999 -RA SCT030 BKN070 09/07 Q1011
 
LGPZ - Preveza/Aktion, Greece
Distance from station: ΝΔ 217km
Ενημερώθηκε: 29/01/2020 22:50
Σχεδόν νεφελώδης
Σχεδόν νεφελώδης
 Ανεμος από Δ
Ανεμος: Δ 13 km/h
Θερμοκρασία: 15°C
Σημείο Δρόσου: 12°C
Υγρασία: 82%
Βαρόμετρο: 1015 hPa
Clouds: Σχεδόν νεφελώδης
Visibility: 10 km
Cloud details: Few Clouds 549 m
Μερικώς νεφελώδης 762 m
Σχεδόν νεφελώδης 2134 m
2020/01/29 20:50 LGPZ 292050Z 26007KT 9999 FEW018 SCT025 BKN070 15/12 Q1015
LGKR - Ioannis Kapodist, Greece
Distance from station: ΔΝΔ 219km
Ενημερώθηκε: 29/01/2020 23:20
Μερικώς νεφελώδης
Μερικώς νεφελώδης
 Ανεμος από Δ
Ανεμος: Δ 17 km/h
Θερμοκρασία: 14°C
Σημείο Δρόσου: 9°C
Υγρασία: 72%
Βαρόμετρο: 1014 hPa
Clouds: Μερικώς νεφελώδης
Visibility: 10 km
Cloud details: Few Clouds 610 m
Μερικώς νεφελώδης 2438 m
2020/01/29 21:20 LGKR 292120Z 27009KT 9999 FEW020 SCT080 14/09 Q1014 NOSIG
 
LGSY - Skiros, Greece
Distance from station: ΝΑ 261km
Ενημερώθηκε: 29/01/2020 21:50
NOT Current
Αίθριος
Αίθριος
 Ανεμος από ΝΔ
Ανεμος: ΝΔ 15 km/h
Θερμοκρασία: 15°C
Σημείο Δρόσου: 10°C
Υγρασία: 72%
Βαρόμετρο: 1011 hPa
Περίληψη: Αίθριος
Visibility: greater than 10 km
2020/01/29 19:50 LGSY 291950Z 22008KT CAVOK 15/10 Q1011 RMK FEW080 SCT180 BLU
LGLM - Limnos Island Ar, Greece
Distance from station: ΑΝΑ 266km
Ενημερώθηκε: 29/01/2020 22:50
Few Clouds
Few Clouds
 Ανεμος από ΔΒΔ
Ανεμος: ΔΒΔ 6 km/h
Θερμοκρασία: 11°C
Σημείο Δρόσου: 9°C
Υγρασία: 88%
Βαρόμετρο: 1009 hPa
Clouds: Few Clouds
Visibility: 10 km
Cloud details: Few Clouds 914 m
2020/01/29 20:50 LGLM 292050Z 29003KT 9999 FEW030 11/09 Q1009
 
LGRX - Araxos (civ/Afb), Greece
Distance from station: ΝΝΔ 271km
Ενημερώθηκε: 29/01/2020 22:50
Μερικώς νεφελώδης
Μερικώς νεφελώδης
 Ανεμος από ΔΝΔ
Ανεμος: ΔΝΔ 11 km/h
Θερμοκρασία: 15°C
Σημείο Δρόσου: 9°C
Υγρασία: 68%
Βαρόμετρο: 1015 hPa
Clouds: Μερικώς νεφελώδης
Visibility: 10 km
Cloud details: Μερικώς νεφελώδης 610 m
Μερικώς νεφελώδης 1829 m
2020/01/29 20:50 LGRX 292050Z 25006KT 9999 SCT020 SCT060 15/09 Q1015
LGEL - Elefsis (hel-Afb, Greece
Distance from station: ΝΝΑ 297km
Ενημερώθηκε: 29/01/2020 23:20
Μερικώς νεφελώδης
Μερικώς νεφελώδης
 Ανεμος από varies
Ανεμος: varies 6 km/h
Θερμοκρασία: 15°C
Σημείο Δρόσου: 8°C
Υγρασία: 63%
Βαρόμετρο: 1012 hPa
Clouds: Μερικώς νεφελώδης
Visibility: 10 km
Cloud details: Μερικώς νεφελώδης 762 m
Μερικώς νεφελώδης 2134 m
2020/01/29 21:20 LGEL 292120Z VRB03KT 9999 SCT025 SCT070 15/08 Q1012
 
LGAD - Andravida (civ/A, Greece
Distance from station: ΝΝΔ 301km
Ενημερώθηκε: 29/01/2020 23:20
Μερικώς νεφελώδης
Μερικώς νεφελώδης
 Ανεμος από calm
Ανεμος: Απνοια
Θερμοκρασία: 14°C
Σημείο Δρόσου: 11°C
Υγρασία: 82%
Βαρόμετρο: 1016 hPa
Clouds: Μερικώς νεφελώδης
Visibility: 10 km
Cloud details: Few Clouds 549 m
Μερικώς νεφελώδης 914 m
2020/01/29 21:20 LGAD 292120Z 00000KT 9999 FEW018 SCT030 14/11 Q1016
LGKF - Kefallinia, Greece
Distance from station: ΝΝΔ 305km
Ενημερώθηκε: 29/01/2020 19:50
NOT Current
Σχεδόν νεφελώδης
Σχεδόν νεφελώδης
 Ανεμος από Δ
Ανεμος: Δ 28 km/h
Θερμοκρασία: 15°C
Σημείο Δρόσου: 9°C
Υγρασία: 68%
Βαρόμετρο: 1015 hPa
Clouds: Σχεδόν νεφελώδης
Visibility: 10 km
Cloud details: Few Clouds 488 m
Μερικώς νεφελώδης 610 m
Σχεδόν νεφελώδης 2134 m
2020/01/29 17:50 LGKF 291750Z 28015KT 9999 FEW016 SCT020 BKN070 15/09 Q1015